Milton, Canada
Current Conditions -  °F | °C
As of 4:00 PM on Tuesday 21 Oct 2014 (Local Time) from CYYZ Reporting Station
Rain Showers Rain Showers  
Wind Chill: 39°   Ceiling: 1800
Heat Index: 46°   Visibility: 4mi
Dew Point: 43°   Wind: 17mph
Humidity: 87%   Direction: 10°N
Pressure: 29.98"   Gusts: NA
Location:  43.51°N, 79.88°W
Report Text: CYYZ 212000Z 01015KT 4SM -SHRA BR SCT012 OVC018 08/06 A2998 RMK SF4SC4 SLP155
Loading
Personal Weather Stations






























Interactive Weather Map
Tropical Storm Tracking
New forecast layout! Learn more

10-Day Weather Forecast

Advertisements
Track Severe Weather on mobile